Time;durP1;ratioP1;P1;durP2;ratioP2;P2;SDS_P1;SDS_P2;PMS_P1;PMS_P2;Temp;Humidity;BMP_temperature;BMP_pressure;BME280_temperature;BME280_humidity;BME280_pressure;Samples;Min_cycle;Max_cycle;Signal;HPM_P1;HPM_P2
2021/07/02 00:02:20;;;;;;;5.32;3.45;;;;;;;;;;5016784;28;20034;-74
2021/07/02 00:04:46;;;;;;;3.20;2.90;;;;;;;;;;5034671;28;20336;-74
2021/07/02 00:07:12;;;;;;;3.95;3.30;;;;;;;;;;5033704;28;20033;-74
2021/07/02 00:09:38;;;;;;;3.75;3.45;;;;;;;;;;5033860;28;20032;-74
2021/07/02 00:12:04;;;;;;;4.63;3.25;;;;;;;;;;5034275;28;20029;-74
2021/07/02 00:14:30;;;;;;;3.20;2.90;;;;;;;;;;5034318;28;20423;-74
2021/07/02 00:16:56;;;;;;;3.47;3.17;;;;;;;;;;5015363;28;20040;-74
2021/07/02 00:19:25;;;;;;;3.63;3.28;;;;;;;;;;5034564;28;20040;-75
2021/07/02 00:21:51;;;;;;;3.60;3.13;;;;;;;;;;5033971;28;20032;-75
2021/07/02 00:24:17;;;;;;;3.63;3.30;;;;;;;;;;5040193;28;20555;-74
2021/07/02 00:26:43;;;;;;;2.67;2.47;;;;;;;;;;5047553;28;20013;-74
2021/07/02 00:29:09;;;;;;;3.20;2.90;;;;;;;;;;5015082;28;20441;-74
2021/07/02 00:31:35;;;;;;;3.78;2.83;;;;;;;;;;5014681;28;20114;-74
2021/07/02 00:34:01;;;;;;;2.67;2.47;;;;;;;;;;5033684;28;20021;-74
2021/07/02 00:36:27;;;;;;;3.13;2.83;;;;;;;;;;5034040;28;20033;-74
2021/07/02 00:38:54;;;;;;;3.53;2.88;;;;;;;;;;5033611;28;20096;-74
2021/07/02 00:41:20;;;;;;;3.28;2.95;;;;;;;;;;5033458;28;20033;-74
2021/07/02 00:43:49;;;;;;;7.13;4.35;;;;;;;;;;5033457;28;20052;-74
2021/07/02 00:46:15;;;;;;;3.85;3.25;;;;;;;;;;5033550;28;20032;-75
2021/07/02 00:48:42;;;;;;;3.15;2.85;;;;;;;;;;5033532;28;20021;-75
2021/07/02 00:51:08;;;;;;;3.78;3.03;;;;;;;;;;5033215;28;20022;-75
2021/07/02 00:53:34;;;;;;;3.75;3.33;;;;;;;;;;5015194;28;20136;-75
2021/07/02 00:56:00;;;;;;;4.15;2.97;;;;;;;;;;5044752;28;20393;-75
2021/07/02 00:58:30;;;;;;;3.22;2.92;;;;;;;;;;5033547;28;20029;-75
2021/07/02 01:00:56;;;;;;;3.33;3.03;;;;;;;;;;5033391;28;20203;-73
2021/07/02 01:03:22;;;;;;;3.28;2.90;;;;;;;;;;5033410;28;20028;-74
2021/07/02 01:05:49;;;;;;;3.63;2.97;;;;;;;;;;5015646;28;20049;-73
2021/07/02 01:08:15;;;;;;;3.35;3.05;;;;;;;;;;5032957;28;20474;-74
2021/07/02 01:10:43;;;;;;;3.63;3.33;;;;;;;;;;5033212;28;20033;-74
2021/07/02 01:13:09;;;;;;;4.28;3.88;;;;;;;;;;5033207;28;20052;-74
2021/07/02 01:15:35;;;;;;;4.18;3.28;;;;;;;;;;5032922;28;20437;-74
2021/07/02 01:18:04;;;;;;;4.70;3.95;;;;;;;;;;5032855;28;20521;-74
2021/07/02 01:20:30;;;;;;;4.15;3.22;;;;;;;;;;5033067;28;20030;-75
2021/07/02 01:22:57;;;;;;;4.90;3.67;;;;;;;;;;5033301;28;20065;-74
2021/07/02 01:25:24;;;;;;;4.75;3.40;;;;;;;;;;5042215;28;20024;-74
2021/07/02 01:27:50;;;;;;;3.95;3.00;;;;;;;;;;5037262;28;20029;-74
2021/07/02 01:30:16;;;;;;;3.88;2.90;;;;;;;;;;5032797;28;20061;-74
2021/07/02 01:32:42;;;;;;;3.25;2.75;;;;;;;;;;5032482;28;20526;-74
2021/07/02 01:35:09;;;;;;;3.25;2.60;;;;;;;;;;5033186;28;20021;-75
2021/07/02 01:37:35;;;;;;;3.05;2.75;;;;;;;;;;5032275;28;20030;-74
2021/07/02 01:40:01;;;;;;;4.00;3.60;;;;;;;;;;5031716;28;20029;-75
2021/07/02 01:42:27;;;;;;;3.75;3.30;;;;;;;;;;5032177;28;20374;-74
2021/07/02 01:44:53;;;;;;;4.10;3.30;;;;;;;;;;5031959;28;20026;-74
2021/07/02 01:47:19;;;;;;;3.88;3.47;;;;;;;;;;5024992;28;20071;-74
2021/07/02 01:49:45;;;;;;;3.47;3.17;;;;;;;;;;5031749;28;20026;-74
2021/07/02 01:52:11;;;;;;;3.65;3.30;;;;;;;;;;5031964;28;20036;-74
2021/07/02 01:54:38;;;;;;;4.00;3.60;;;;;;;;;;5031883;28;20108;-73
2021/07/02 01:57:06;;;;;;;3.60;3.30;;;;;;;;;;5018211;28;20033;-74
2021/07/02 01:59:32;;;;;;;3.60;3.28;;;;;;;;;;5032612;28;20057;-74
2021/07/02 02:01:58;;;;;;;4.18;3.35;;;;;;;;;;5032033;28;20037;-73
2021/07/02 02:04:24;;;;;;;5.55;4.13;;;;;;;;;;5034288;28;20030;-72
2021/07/02 02:06:50;;;;;;;3.35;3.05;;;;;;;;;;5032199;28;20022;-72
2021/07/02 02:09:16;;;;;;;4.25;3.67;;;;;;;;;;5031329;28;20364;-73
2021/07/02 02:11:42;;;;;;;4.18;3.33;;;;;;;;;;5031594;28;20482;-73
2021/07/02 02:14:10;;;;;;;3.90;3.40;;;;;;;;;;5031891;28;20052;-72
2021/07/02 02:16:36;;;;;;;3.55;3.17;;;;;;;;;;5031363;28;20045;-73
2021/07/02 02:19:02;;;;;;;4.68;3.90;;;;;;;;;;5031769;28;20029;-72
2021/07/02 02:21:28;;;;;;;5.45;3.88;;;;;;;;;;5032174;28;20048;-73
2021/07/02 02:23:54;;;;;;;4.55;3.45;;;;;;;;;;5031923;28;20032;-72
2021/07/02 02:26:20;;;;;;;4.53;3.63;;;;;;;;;;5032409;28;20025;-73
2021/07/02 02:28:46;;;;;;;4.22;3.83;;;;;;;;;;5031031;28;20409;-73
2021/07/02 02:31:12;;;;;;;3.80;3.45;;;;;;;;;;5030909;28;20033;-73
2021/07/02 02:33:39;;;;;;;4.43;3.90;;;;;;;;;;5034452;28;20030;-73
2021/07/02 02:36:05;;;;;;;6.25;3.72;;;;;;;;;;5036675;28;20059;-74
2021/07/02 02:38:31;;;;;;;4.45;3.60;;;;;;;;;;5031337;28;20540;-73
2021/07/02 02:40:58;;;;;;;4.18;3.45;;;;;;;;;;5031578;28;20057;-73
2021/07/02 02:43:24;;;;;;;5.40;4.28;;;;;;;;;;5032207;28;20037;-74
2021/07/02 02:45:50;;;;;;;4.13;3.60;;;;;;;;;;5031875;28;20092;-74
2021/07/02 02:48:16;;;;;;;5.50;4.78;;;;;;;;;;5031437;28;20489;-73
2021/07/02 02:50:42;;;;;;;6.13;4.38;;;;;;;;;;5031990;28;20034;-73
2021/07/02 02:53:08;;;;;;;6.03;4.28;;;;;;;;;;5032035;28;20030;-73
2021/07/02 02:55:34;;;;;;;4.82;3.95;;;;;;;;;;5032838;28;20025;-73
2021/07/02 02:58:00;;;;;;;4.00;3.42;;;;;;;;;;5032362;28;20060;-73
2021/07/02 03:00:26;;;;;;;7.38;4.70;;;;;;;;;;5031312;28;20029;-73
2021/07/02 03:02:52;;;;;;;4.50;4.03;;;;;;;;;;5024972;28;20058;-74
2021/07/02 03:05:18;;;;;;;5.75;4.05;;;;;;;;;;5047523;28;20037;-74
2021/07/02 03:07:44;;;;;;;4.38;3.95;;;;;;;;;;5031718;28;20025;-74
2021/07/02 03:10:10;;;;;;;5.57;3.90;;;;;;;;;;5031253;28;20021;-74
2021/07/02 03:12:37;;;;;;;5.07;4.00;;;;;;;;;;5030982;28;20038;-74
2021/07/02 03:15:03;;;;;;;5.60;4.22;;;;;;;;;;5031271;28;20025;-74
2021/07/02 03:17:29;;;;;;;4.45;3.95;;;;;;;;;;5031367;28;20026;-73
2021/07/02 03:19:55;;;;;;;4.40;3.88;;;;;;;;;;5031061;28;20478;-74
2021/07/02 03:22:21;;;;;;;3.75;3.40;;;;;;;;;;5034090;28;20076;-74
2021/07/02 03:24:47;;;;;;;4.65;3.72;;;;;;;;;;5017575;28;20014;-74
2021/07/02 03:27:13;;;;;;;4.57;3.97;;;;;;;;;;5035358;28;20033;-74
2021/07/02 03:29:39;;;;;;;5.57;3.70;;;;;;;;;;5035140;28;20022;-74
2021/07/02 03:32:07;;;;;;;5.20;4.55;;;;;;;;;;5034649;28;20394;-74
2021/07/02 03:34:34;;;;;;;5.03;4.03;;;;;;;;;;5043010;28;20013;-74
2021/07/02 03:37:00;;;;;;;7.38;4.63;;;;;;;;;;5016856;28;20022;-73
2021/07/02 03:39:26;;;;;;;8.40;4.97;;;;;;;;;;5034573;28;20524;-74
2021/07/02 03:41:52;;;;;;;5.63;4.60;;;;;;;;;;5034141;28;20446;-75
2021/07/02 03:44:18;;;;;;;4.40;4.00;;;;;;;;;;5034300;28;20037;-74
2021/07/02 03:46:44;;;;;;;5.00;4.38;;;;;;;;;;5034552;28;20021;-74
2021/07/02 03:49:10;;;;;;;4.45;3.72;;;;;;;;;;5034368;28;20556;-73
2021/07/02 03:51:37;;;;;;;4.13;3.72;;;;;;;;;;5034824;28;20120;-73
2021/07/02 03:54:03;;;;;;;4.68;3.13;;;;;;;;;;5034238;28;20139;-73
2021/07/02 03:56:29;;;;;;;4.63;3.45;;;;;;;;;;5033957;28;20029;-73
2021/07/02 03:58:55;;;;;;;4.40;3.85;;;;;;;;;;5015920;28;20037;-73
2021/07/02 04:01:21;;;;;;;4.20;3.70;;;;;;;;;;5031814;28;20413;-73
2021/07/02 04:03:47;;;;;;;6.53;5.55;;;;;;;;;;5032155;28;20026;-74
2021/07/02 04:06:13;;;;;;;5.65;4.95;;;;;;;;;;5042738;28;20464;-74
2021/07/02 04:08:39;;;;;;;5.15;4.65;;;;;;;;;;5034127;28;20030;-74
2021/07/02 04:11:07;;;;;;;5.80;4.60;;;;;;;;;;5034292;28;20034;-74
2021/07/02 04:13:33;;;;;;;6.38;4.80;;;;;;;;;;5033811;28;20045;-73
2021/07/02 04:15:59;;;;;;;6.30;4.57;;;;;;;;;;5034099;28;20060;-74
2021/07/02 04:18:25;;;;;;;5.18;4.03;;;;;;;;;;5033651;28;20414;-74
2021/07/02 04:20:51;;;;;;;4.82;4.00;;;;;;;;;;5034061;28;20331;-73
2021/07/02 04:23:17;;;;;;;4.32;3.63;;;;;;;;;;5033988;28;20036;-74
2021/07/02 04:25:43;;;;;;;5.97;4.50;;;;;;;;;;5033637;28;20026;-74
2021/07/02 04:28:09;;;;;;;4.85;4.35;;;;;;;;;;5033996;28;20025;-74
2021/07/02 04:30:36;;;;;;;4.07;3.67;;;;;;;;;;5016201;28;20040;-74
2021/07/02 04:33:02;;;;;;;3.65;3.33;;;;;;;;;;5029484;28;20037;-74
2021/07/02 04:35:28;;;;;;;4.10;3.50;;;;;;;;;;5042380;28;20033;-72
2021/07/02 04:37:54;;;;;;;3.67;3.25;;;;;;;;;;5035239;28;20029;-73
2021/07/02 04:40:20;;;;;;;3.63;3.05;;;;;;;;;;5034004;28;20033;-73
2021/07/02 04:42:46;;;;;;;3.47;3.17;;;;;;;;;;5033342;28;20107;-74
2021/07/02 04:45:12;;;;;;;3.95;2.88;;;;;;;;;;5033735;28;20083;-74
2021/07/02 04:47:38;;;;;;;3.65;2.95;;;;;;;;;;5015603;28;20021;-74
2021/07/02 04:50:06;;;;;;;5.40;4.40;;;;;;;;;;5033148;28;20437;-74
2021/07/02 04:52:32;;;;;;;5.47;4.18;;;;;;;;;;5033178;28;20078;-74
2021/07/02 04:54:58;;;;;;;4.03;3.63;;;;;;;;;;5033057;28;20025;-73
2021/07/02 04:57:24;;;;;;;4.35;3.78;;;;;;;;;;5032767;28;20026;-73
2021/07/02 04:59:51;;;;;;;5.70;5.10;;;;;;;;;;5032878;28;20026;-73
2021/07/02 05:02:17;;;;;;;5.47;4.40;;;;;;;;;;5011393;28;20021;-74
2021/07/02 05:04:43;;;;;;;5.47;4.47;;;;;;;;;;5039232;28;20532;-74
2021/07/02 05:07:11;;;;;;;4.00;3.60;;;;;;;;;;5032565;28;20482;-74
2021/07/02 05:09:37;;;;;;;6.35;4.70;;;;;;;;;;5032897;28;20091;-74
2021/07/02 05:12:04;;;;;;;4.90;4.00;;;;;;;;;;5032609;28;20053;-73
2021/07/02 05:14:30;;;;;;;4.50;4.10;;;;;;;;;;5015175;28;20033;-73
2021/07/02 05:16:56;;;;;;;4.78;4.22;;;;;;;;;;5032115;28;20402;-73
2021/07/02 05:19:22;;;;;;;3.92;3.40;;;;;;;;;;5032986;28;20057;-74
2021/07/02 05:21:48;;;;;;;4.03;3.67;;;;;;;;;;5032716;28;20025;-73
2021/07/02 05:24:14;;;;;;;5.82;4.90;;;;;;;;;;5032948;28;20360;-74
2021/07/02 05:26:40;;;;;;;4.85;3.83;;;;;;;;;;5032255;28;20743;-74
2021/07/02 05:29:06;;;;;;;5.97;4.25;;;;;;;;;;5032217;28;20068;-74
2021/07/02 05:31:32;;;;;;;4.53;4.10;;;;;;;;;;5032687;28;20363;-74
2021/07/02 05:33:58;;;;;;;4.43;4.00;;;;;;;;;;5040537;28;20035;-73
2021/07/02 05:36:24;;;;;;;5.13;4.55;;;;;;;;;;5032743;28;20474;-74
2021/07/02 05:38:50;;;;;;;5.80;4.65;;;;;;;;;;5031971;28;20030;-74
2021/07/02 05:41:16;;;;;;;5.13;4.50;;;;;;;;;;5032501;28;20517;-74
2021/07/02 05:43:42;;;;;;;4.72;3.95;;;;;;;;;;5032215;28;20033;-73
2021/07/02 05:46:08;;;;;;;6.63;4.32;;;;;;;;;;5031454;28;20568;-74
2021/07/02 05:48:34;;;;;;;5.10;4.60;;;;;;;;;;5031696;28;20034;-74
2021/07/02 05:51:00;;;;;;;5.45;4.68;;;;;;;;;;5032280;28;20025;-73
2021/07/02 05:53:26;;;;;;;9.32;5.28;;;;;;;;;;5032220;28;20034;-74
2021/07/02 05:55:52;;;;;;;6.80;4.25;;;;;;;;;;5031850;28;20041;-73
2021/07/02 05:58:18;;;;;;;6.70;4.80;;;;;;;;;;5032022;28;20041;-74
2021/07/02 06:00:44;;;;;;;5.90;4.53;;;;;;;;;;5031869;28;20033;-73
2021/07/02 06:03:10;;;;;;;3.85;3.10;;;;;;;;;;5034224;28;20083;-74
2021/07/02 06:05:37;;;;;;;4.40;3.50;;;;;;;;;;5038358;28;20061;-74
2021/07/02 06:08:03;;;;;;;4.40;4.00;;;;;;;;;;5031611;28;20130;-74
2021/07/02 06:10:30;;;;;;;9.60;4.78;;;;;;;;;;5030877;28;20029;-74
2021/07/02 06:12:57;;;;;;;5.88;5.00;;;;;;;;;;5032020;28;20071;-75
2021/07/02 06:15:23;;;;;;;5.15;4.43;;;;;;;;;;5013637;28;20046;-74
2021/07/02 06:17:50;;;;;;;7.90;4.20;;;;;;;;;;5033226;28;20044;-74
2021/07/02 06:20:17;;;;;;;4.47;4.07;;;;;;;;;;5039923;28;20102;-73
2021/07/02 06:22:43;;;;;;;5.13;3.95;;;;;;;;;;5027843;28;20018;-74
2021/07/02 06:25:10;;;;;;;9.35;6.03;;;;;;;;;;5031842;28;20398;-74
2021/07/02 06:27:37;;;;;;;6.25;5.35;;;;;;;;;;5032011;28;20026;-74
2021/07/02 06:30:06;;;;;;;7.22;5.10;;;;;;;;;;5031928;28;20453;-73
2021/07/02 06:32:32;;;;;;;6.15;4.72;;;;;;;;;;5030072;28;20091;-74
2021/07/02 06:34:59;;;;;;;5.80;4.57;;;;;;;;;;5036554;28;20030;-73
2021/07/02 06:37:25;;;;;;;5.28;4.07;;;;;;;;;;5031903;28;20029;-74
2021/07/02 06:39:51;;;;;;;4.65;3.97;;;;;;;;;;5031747;28;20021;-74
2021/07/02 06:42:17;;;;;;;5.45;4.20;;;;;;;;;;5032043;28;20033;-74
2021/07/02 06:44:43;;;;;;;5.75;4.90;;;;;;;;;;5031908;28;20490;-74
2021/07/02 06:47:09;;;;;;;6.93;5.28;;;;;;;;;;5032076;28;20482;-73
2021/07/02 06:49:38;;;;;;;6.65;4.53;;;;;;;;;;5031983;28;20040;-73
2021/07/02 06:52:04;;;;;;;10.05;5.47;;;;;;;;;;5031835;28;20451;-73
2021/07/02 06:54:30;;;;;;;6.75;5.63;;;;;;;;;;5032069;28;20037;-73
2021/07/02 06:57:03;;;;;;;8.95;5.63;;;;;;;;;;5031350;28;20033;-74
2021/07/02 06:59:29;;;;;;;7.15;4.53;;;;;;;;;;5034977;28;20520;-74
2021/07/02 07:01:56;;;;;;;5.95;4.00;;;;;;;;;;5036214;28;20055;-75
2021/07/02 07:04:22;;;;;;;8.65;5.10;;;;;;;;;;5046817;28;20017;-74
2021/07/02 07:06:48;;;;;;;5.32;4.80;;;;;;;;;;5035684;28;20482;-74
2021/07/02 07:09:14;;;;;;;5.70;4.60;;;;;;;;;;5035351;28;20032;-74
2021/07/02 07:11:40;;;;;;;6.05;4.40;;;;;;;;;;5035370;28;20034;-74
2021/07/02 07:14:06;;;;;;;5.10;4.60;;;;;;;;;;5035184;28;20037;-74
2021/07/02 07:16:33;;;;;;;5.70;4.68;;;;;;;;;;5035414;28;20061;-74
2021/07/02 07:18:59;;;;;;;7.18;4.10;;;;;;;;;;5035166;28;20064;-74
2021/07/02 07:21:25;;;;;;;5.70;4.53;;;;;;;;;;5035044;28;20029;-75
2021/07/02 07:23:51;;;;;;;6.70;4.25;;;;;;;;;;5034721;28;20072;-74
2021/07/02 07:26:18;;;;;;;4.55;4.07;;;;;;;;;;5034925;28;20079;-74
2021/07/02 07:28:44;;;;;;;5.32;4.40;;;;;;;;;;5034668;28;20021;-75
2021/07/02 07:31:10;;;;;;;5.65;4.40;;;;;;;;;;5034369;28;20029;-74
2021/07/02 07:33:40;;;;;;;6.22;4.75;;;;;;;;;;5037551;28;20135;-74
2021/07/02 07:36:08;;;;;;;4.30;3.72;;;;;;;;;;5049593;28;20053;-74
2021/07/02 07:38:34;;;;;;;6.18;4.30;;;;;;;;;;5034520;28;20021;-75
2021/07/02 07:41:00;;;;;;;4.13;3.60;;;;;;;;;;5034725;28;20048;-74
2021/07/02 07:43:27;;;;;;;7.15;4.70;;;;;;;;;;5035295;28;20025;-74
2021/07/02 07:45:54;;;;;;;5.55;4.68;;;;;;;;;;5034525;28;20024;-74
2021/07/02 07:48:20;;;;;;;6.10;4.22;;;;;;;;;;5034832;28;20025;-74
2021/07/02 07:50:50;;;;;;;4.40;3.85;;;;;;;;;;5034676;28;20660;-74
2021/07/02 07:53:16;;;;;;;6.15;4.10;;;;;;;;;;5035035;28;20045;-74
2021/07/02 07:55:43;;;;;;;7.93;3.88;;;;;;;;;;5034837;28;20423;-74
2021/07/02 07:58:10;;;;;;;4.75;3.53;;;;;;;;;;5034575;28;20026;-75
2021/07/02 08:00:36;;;;;;;8.63;5.22;;;;;;;;;;5034403;28;20029;-74
2021/07/02 08:03:02;;;;;;;6.18;4.22;;;;;;;;;;5036002;28;20021;-74
2021/07/02 08:05:29;;;;;;;6.05;5.03;;;;;;;;;;5047711;28;20032;-74
2021/07/02 08:07:55;;;;;;;5.55;3.78;;;;;;;;;;5044404;28;20040;-74
2021/07/02 08:10:22;;;;;;;6.15;4.32;;;;;;;;;;5034493;28;20026;-75
2021/07/02 08:12:48;;;;;;;5.70;4.07;;;;;;;;;;5017068;28;20498;-74
2021/07/02 08:15:15;;;;;;;4.60;3.95;;;;;;;;;;5034797;28;20079;-74
2021/07/02 08:17:41;;;;;;;5.18;4.15;;;;;;;;;;5034091;28;20068;-75
2021/07/02 08:20:08;;;;;;;6.60;4.53;;;;;;;;;;5033692;28;20044;-75
2021/07/02 08:22:34;;;;;;;5.22;4.50;;;;;;;;;;5034340;28;20033;-74
2021/07/02 08:25:00;;;;;;;6.10;5.15;;;;;;;;;;5034148;28;20025;-75
2021/07/02 08:27:27;;;;;;;6.72;4.30;;;;;;;;;;5034151;28;20112;-74
2021/07/02 08:29:55;;;;;;;6.07;4.80;;;;;;;;;;5033138;28;20028;-75
2021/07/02 08:32:28;;;;;;;6.70;4.57;;;;;;;;;;5036872;28;20033;-74
2021/07/02 08:34:53;;;;;;;7.13;4.55;;;;;;;;;;5045207;28;20029;-74
2021/07/02 08:37:19;;;;;;;5.15;4.65;;;;;;;;;;5053681;28;20109;-75
2021/07/02 08:39:48;;;;;;;3.60;3.30;;;;;;;;;;5043159;28;20456;-75
2021/07/02 08:42:14;;;;;;;6.28;4.63;;;;;;;;;;5033891;28;20022;-74
2021/07/02 08:44:40;;;;;;;5.57;4.88;;;;;;;;;;5033760;28;20018;-74
2021/07/02 08:47:07;;;;;;;4.80;3.97;;;;;;;;;;5033559;28;20021;-74
2021/07/02 08:49:34;;;;;;;5.57;4.30;;;;;;;;;;5033392;28;20021;-74
2021/07/02 08:52:00;;;;;;;4.93;4.38;;;;;;;;;;5034007;28;20032;-74
2021/07/02 08:54:26;;;;;;;6.88;4.32;;;;;;;;;;5034149;28;20144;-75
2021/07/02 08:56:56;;;;;;;8.25;4.75;;;;;;;;;;5034090;28;20017;-75
2021/07/02 08:59:26;;;;;;;5.70;5.00;;;;;;;;;;5033182;28;20030;-74
2021/07/02 09:01:52;;;;;;;4.95;4.13;;;;;;;;;;5026557;28;20387;-75
2021/07/02 09:04:20;;;;;;;5.57;4.60;;;;;;;;;;5044978;28;20032;-74
2021/07/02 09:07:04;;;;;;;6.07;4.60;;;;;;;;;;5053632;28;20155;-75
2021/07/02 09:09:42;;;;;;;6.70;5.55;;;;;;;;;;5053438;28;20110;-74
2021/07/02 09:12:08;;;;;;;7.75;5.20;;;;;;;;;;5013986;28;20048;-74
2021/07/02 09:14:35;;;;;;;19.50;7.78;;;;;;;;;;5013957;28;20087;-75
2021/07/02 09:17:08;;;;;;;6.68;5.15;;;;;;;;;;5013765;28;20022;-75
2021/07/02 09:19:35;;;;;;;6.95;4.25;;;;;;;;;;5013779;28;20033;-74
2021/07/02 09:22:14;;;;;;;5.53;4.93;;;;;;;;;;5030618;28;20205;-74
2021/07/02 09:24:45;;;;;;;5.07;4.07;;;;;;;;;;5033477;28;20688;-75
2021/07/02 09:27:31;;;;;;;4.53;3.50;;;;;;;;;;5033464;28;20047;-75
2021/07/02 09:30:01;;;;;;;6.38;4.65;;;;;;;;;;5033833;28;20022;-75
2021/07/02 09:32:30;;;;;;;6.30;4.53;;;;;;;;;;5031313;28;20087;-75
2021/07/02 09:34:58;;;;;;;4.88;4.43;;;;;;;;;;5045406;28;20024;-74
2021/07/02 09:37:28;;;;;;;5.38;4.70;;;;;;;;;;5053849;28;20451;-74
2021/07/02 09:39:54;;;;;;;5.65;4.68;;;;;;;;;;5053279;28;20085;-75
2021/07/02 09:42:27;;;;;;;8.55;5.25;;;;;;;;;;5020737;28;20029;-74
2021/07/02 09:45:10;;;;;;;9.63;5.03;;;;;;;;;;5033363;28;20048;-73
2021/07/02 09:47:37;;;;;;;6.60;4.70;;;;;;;;;;5030339;28;20036;-72
2021/07/02 09:50:22;;;;;;;4.95;3.92;;;;;;;;;;5033240;28;20090;-73
2021/07/02 09:53:05;;;;;;;6.10;3.90;;;;;;;;;;5033189;28;20394;-72
2021/07/02 09:55:32;;;;;;;4.82;4.28;;;;;;;;;;5033423;28;20021;-72
2021/07/02 09:58:02;;;;;;;5.07;4.05;;;;;;;;;;5015482;28;20025;-72
2021/07/02 10:00:29;;;;;;;5.93;4.25;;;;;;;;;;5014923;28;20072;-72
2021/07/02 10:02:56;;;;;;;4.88;4.30;;;;;;;;;;5032931;28;20483;-72
2021/07/02 10:05:22;;;;;;;5.28;4.28;;;;;;;;;;5040430;28;20037;-73
2021/07/02 10:08:14;;;;;;;4.75;4.05;;;;;;;;;;5032045;28;20018;-74
2021/07/02 10:10:40;;;;;;;;;;;;;;;;;;5010775;28;20041;-73
2021/07/02 10:13:06;;;;;;;4.55;4.10;;;;;;;;;;5027385;28;19920;-72
2021/07/02 10:15:33;;;;;;;4.13;3.35;;;;;;;;;;5032223;28;20445;-73
2021/07/02 10:18:00;;;;;;;5.20;4.07;;;;;;;;;;5032844;28;20117;-74
2021/07/02 10:20:27;;;;;;;5.35;3.85;;;;;;;;;;5033363;28;20030;-73
2021/07/02 10:22:55;;;;;;;6.78;4.38;;;;;;;;;;5032359;28;20044;-73
2021/07/02 10:25:21;;;;;;;9.20;4.13;;;;;;;;;;5014125;28;20029;-73
2021/07/02 10:27:47;;;;;;;4.03;3.63;;;;;;;;;;5032699;28;20026;-73
2021/07/02 10:30:13;;;;;;;5.25;3.90;;;;;;;;;;5032091;28;20021;-72
2021/07/02 10:32:40;;;;;;;6.75;3.85;;;;;;;;;;5033297;28;20036;-73
2021/07/02 10:35:06;;;;;;;4.20;3.75;;;;;;;;;;5044774;28;20497;-73
2021/07/02 10:37:32;;;;;;;4.85;3.97;;;;;;;;;;5036593;28;20026;-74
2021/07/02 10:40:01;;;;;;;3.55;3.25;;;;;;;;;;5035722;28;20076;-73
2021/07/02 10:42:31;;;;;;;3.60;3.28;;;;;;;;;;5036340;28;20490;-73
2021/07/02 10:44:59;;;;;;;4.70;4.28;;;;;;;;;;5035833;28;20064;-73
2021/07/02 10:47:26;;;;;;;4.40;4.00;;;;;;;;;;5035844;28;20021;-73
2021/07/02 10:49:53;;;;;;;5.40;4.05;;;;;;;;;;5035453;28;20164;-73
2021/07/02 10:52:25;;;;;;;5.50;3.53;;;;;;;;;;5035910;28;20029;-73
2021/07/02 10:54:51;;;;;;;;;;;;;;;;;;5035555;28;20021;-74
2021/07/02 10:57:19;;;;;;;3.25;2.95;;;;;;;;;;5036007;28;19905;-73
2021/07/02 10:59:51;;;;;;;5.75;3.85;;;;;;;;;;5035406;28;20100;-73
2021/07/02 11:02:17;;;;;;;4.22;3.38;;;;;;;;;;5037921;28;20017;-74
2021/07/02 11:04:45;;;;;;;6.07;3.72;;;;;;;;;;5044575;28;20112;-74
2021/07/02 11:07:14;;;;;;;4.60;3.63;;;;;;;;;;5051296;28;20056;-73
2021/07/02 11:12:16;;;;;;;4.05;3.60;;;;;;;;;;5035616;28;20033;-73
2021/07/02 11:14:54;;;;;;;3.22;2.95;;;;;;;;;;5036206;28;20025;-73
2021/07/02 11:17:23;;;;;;;3.80;3.40;;;;;;;;;;5033919;28;20375;-73
2021/07/02 11:20:10;;;;;;;3.50;3.20;;;;;;;;;;5018830;28;20032;-74
2021/07/02 11:22:43;;;;;;;4.95;3.88;;;;;;;;;;5036184;28;20037;-74
2021/07/02 11:25:13;;;;;;;4.13;3.70;;;;;;;;;;5036941;28;20021;-73
2021/07/02 11:27:42;;;;;;;8.35;3.83;;;;;;;;;;5040808;28;20077;-73
2021/07/02 11:30:23;;;;;;;4.13;3.53;;;;;;;;;;5035892;28;20021;-76
2021/07/02 11:32:54;;;;;;;3.40;3.10;;;;;;;;;;5043630;28;20017;-74
2021/07/02 11:35:24;;;;;;;3.95;3.55;;;;;;;;;;5048206;28;20108;-74
2021/07/02 11:38:05;;;;;;;4.10;3.15;;;;;;;;;;5046374;28;20030;-74
2021/07/02 11:40:37;;;;;;;3.60;3.30;;;;;;;;;;5034154;28;20386;-74
2021/07/02 11:43:03;;;;;;;;;;;;;;;;;;5034230;28;20022;-74
2021/07/02 11:45:36;;;;;;;4.15;3.35;;;;;;;;;;5034960;28;20284;-74
2021/07/02 11:48:02;;;;;;;6.43;4.68;;;;;;;;;;5034957;28;20422;-74
2021/07/02 11:50:38;;;;;;;3.22;2.92;;;;;;;;;;5034567;28;20028;-74
2021/07/02 11:53:04;;;;;;;4.82;2.90;;;;;;;;;;5034676;28;20100;-73
2021/07/02 11:55:30;;;;;;;4.50;3.13;;;;;;;;;;5036594;28;20021;-73
2021/07/02 11:58:16;;;;;;;2.88;2.67;;;;;;;;;;5036361;28;20076;-73
2021/07/02 12:00:42;;;;;;;4.65;2.97;;;;;;;;;;5033592;28;20113;-73
2021/07/02 12:03:09;;;;;;;4.07;2.90;;;;;;;;;;5042502;28;20137;-74
2021/07/02 12:05:36;;;;;;;5.18;2.90;;;;;;;;;;5037014;28;20025;-74
2021/07/02 12:08:02;;;;;;;4.28;2.85;;;;;;;;;;5034544;28;20092;-73
2021/07/02 12:10:28;;;;;;;3.78;3.08;;;;;;;;;;5033528;28;20026;-73
2021/07/02 12:13:12;;;;;;;3.83;2.80;;;;;;;;;;5034026;28;20030;-73
2021/07/02 12:15:39;;;;;;;2.72;2.50;;;;;;;;;;5014795;28;20108;-74
2021/07/02 12:18:05;;;;;;;3.33;3.03;;;;;;;;;;5022602;28;20024;-74
2021/07/02 12:20:32;;;;;;;3.00;2.70;;;;;;;;;;5033931;28;20035;-74
2021/07/02 12:23:05;;;;;;;3.30;3.00;;;;;;;;;;5035162;28;20065;-74
2021/07/02 12:25:32;;;;;;;3.50;3.17;;;;;;;;;;5015640;28;20470;-73
2021/07/02 12:27:59;;;;;;;3.42;3.00;;;;;;;;;;5047764;28;20021;-74
2021/07/02 12:30:25;;;;;;;3.70;3.38;;;;;;;;;;5016720;28;20026;-74
2021/07/02 12:32:52;;;;;;;2.78;2.55;;;;;;;;;;5042403;28;20095;-74
2021/07/02 12:35:19;;;;;;;5.40;2.80;;;;;;;;;;5046792;28;20032;-73
2021/07/02 12:37:45;;;;;;;2.90;2.70;;;;;;;;;;5054650;28;20021;-74
2021/07/02 12:40:13;;;;;;;4.57;3.20;;;;;;;;;;5046728;28;20022;-73
2021/07/02 12:42:42;;;;;;;3.13;2.55;;;;;;;;;;5034397;28;20109;-74
2021/07/02 12:45:10;;;;;;;3.40;3.10;;;;;;;;;;5034569;28;20387;-74
2021/07/02 12:47:38;;;;;;;3.70;2.85;;;;;;;;;;5033386;28;20351;-73
2021/07/02 12:50:06;;;;;;;3.40;3.00;;;;;;;;;;5033818;28;20032;-74
2021/07/02 12:55:03;;;;;;;3.30;2.65;;;;;;;;;;5033286;28;20034;-74
2021/07/02 12:57:32;;;;;;;3.10;2.80;;;;;;;;;;5033681;28;20383;-74
2021/07/02 13:00:05;;;;;;;3.72;2.80;;;;;;;;;;5033439;28;20056;-73
2021/07/02 13:02:31;;;;;;;3.17;2.88;;;;;;;;;;5039308;28;20021;-74
2021/07/02 13:04:58;;;;;;;5.80;3.05;;;;;;;;;;5045710;28;20021;-73
2021/07/02 13:07:24;;;;;;;3.92;2.90;;;;;;;;;;5043536;28;20025;-73
2021/07/02 13:10:07;;;;;;;3.65;3.30;;;;;;;;;;5032414;28;20120;-74
2021/07/02 13:12:33;;;;;;;3.00;2.80;;;;;;;;;;5033714;28;20386;-73
2021/07/02 13:15:03;;;;;;;3.13;2.78;;;;;;;;;;5015359;28;20022;-74
2021/07/02 13:17:46;;;;;;;4.45;3.38;;;;;;;;;;5033081;28;20486;-74
2021/07/02 13:20:13;;;;;;;3.13;2.83;;;;;;;;;;5032508;28;20029;-73
2021/07/02 13:22:40;;;;;;;2.83;2.63;;;;;;;;;;5033126;28;20033;-73
2021/07/02 13:25:10;;;;;;;3.25;2.95;;;;;;;;;;5033066;28;20021;-73
2021/07/02 13:27:36;;;;;;;3.00;2.70;;;;;;;;;;5033467;28;20025;-74
2021/07/02 13:30:11;;;;;;;3.03;2.72;;;;;;;;;;5033099;28;20030;-73
2021/07/02 13:32:38;;;;;;;3.50;3.20;;;;;;;;;;5013815;28;20018;-74
2021/07/02 13:35:19;;;;;;;2.70;2.50;;;;;;;;;;5044465;28;20474;-74
2021/07/02 13:37:52;;;;;;;2.92;2.72;;;;;;;;;;5048398;28;20103;-73
2021/07/02 13:40:39;;;;;;;4.28;2.97;;;;;;;;;;5032390;28;20500;-73
2021/07/02 13:43:07;;;;;;;3.10;2.90;;;;;;;;;;5032661;28;20021;-74
2021/07/02 13:45:33;;;;;;;3.88;2.97;;;;;;;;;;5032913;28;20531;-73
2021/07/02 13:48:12;;;;;;;3.30;3.00;;;;;;;;;;5032573;28;20029;-73
2021/07/02 13:50:39;;;;;;;3.72;3.13;;;;;;;;;;5032615;28;20109;-74
2021/07/02 13:53:12;;;;;;;3.58;2.67;;;;;;;;;;5032600;28;20422;-74
2021/07/02 13:55:38;;;;;;;3.22;2.38;;;;;;;;;;5032566;28;20045;-73
2021/07/02 13:58:04;;;;;;;6.22;2.85;;;;;;;;;;5032110;28;20022;-73
2021/07/02 14:00:30;;;;;;;3.25;2.67;;;;;;;;;;5032063;28;20029;-73
2021/07/02 14:02:56;;;;;;;2.85;2.65;;;;;;;;;;5040565;28;20029;-73
2021/07/02 14:05:22;;;;;;;3.75;2.67;;;;;;;;;;5044166;28;20021;-73
2021/07/02 14:07:48;;;;;;;4.22;3.00;;;;;;;;;;5052441;28;20096;-73
2021/07/02 14:10:14;;;;;;;2.70;2.50;;;;;;;;;;5035072;28;20029;-73
2021/07/02 14:12:40;;;;;;;2.55;2.35;;;;;;;;;;5032380;28;20540;-72
2021/07/02 14:15:07;;;;;;;3.25;3.05;;;;;;;;;;5031921;28;20025;-73
2021/07/02 14:17:35;;;;;;;3.10;2.83;;;;;;;;;;5032241;28;20580;-74
2021/07/02 14:20:01;;;;;;;3.08;2.78;;;;;;;;;;5031406;28;20422;-73
2021/07/02 14:22:27;;;;;;;3.67;2.92;;;;;;;;;;5031853;28;20030;-73
2021/07/02 14:24:53;;;;;;;2.50;2.35;;;;;;;;;;5031903;28;20018;-73
2021/07/02 14:27:19;;;;;;;2.72;2.45;;;;;;;;;;5032008;28;20056;-73
2021/07/02 14:29:45;;;;;;;3.22;2.92;;;;;;;;;;5032194;28;20017;-72
2021/07/02 14:32:11;;;;;;;2.42;2.22;;;;;;;;;;5025276;28;20415;-73
2021/07/02 14:34:37;;;;;;;3.00;2.80;;;;;;;;;;5040480;28;20026;-73
2021/07/02 14:37:03;;;;;;;2.70;2.35;;;;;;;;;;5014603;28;20033;-73
2021/07/02 14:39:29;;;;;;;2.85;2.65;;;;;;;;;;5014120;28;20053;-73
2021/07/02 14:41:55;;;;;;;3.53;2.72;;;;;;;;;;5032583;28;20057;-73
2021/07/02 14:44:21;;;;;;;2.78;2.58;;;;;;;;;;5032443;28;20041;-73
2021/07/02 14:46:47;;;;;;;3.22;2.95;;;;;;;;;;5032341;28;20026;-73
2021/07/02 14:49:14;;;;;;;2.83;2.63;;;;;;;;;;5031730;28;20017;-72
2021/07/02 14:51:40;;;;;;;2.55;2.35;;;;;;;;;;5032576;28;20026;-72